createdAt,value
2023-03-29T00:00:15.686Z,28.03
2023-03-29T00:01:35.210Z,29.22
2023-03-29T00:02:16.626Z,29.30
2023-03-29T00:03:15.645Z,29.62
2023-03-29T00:04:15.529Z,27.54
2023-03-29T00:05:15.463Z,25.90
2023-03-29T00:06:15.429Z,28.33
2023-03-29T00:07:15.381Z,30.43
2023-03-29T00:08:15.379Z,30.17
2023-03-29T00:09:15.310Z,31.95
2023-03-29T00:10:15.258Z,29.37
2023-03-29T00:11:15.203Z,31.96
2023-03-29T00:12:15.201Z,33.23
2023-03-29T00:13:15.211Z,35.11
2023-03-29T00:14:15.218Z,33.21
2023-03-29T00:15:15.218Z,34.69
2023-03-29T00:16:15.251Z,33.61
2023-03-29T00:17:15.234Z,29.89
2023-03-29T00:18:15.882Z,31.76
2023-03-29T00:19:15.258Z,29.76
2023-03-29T00:20:15.258Z,29.23
2023-03-29T00:21:15.272Z,25.00
2023-03-29T00:22:15.284Z,26.68
2023-03-29T00:23:15.285Z,25.58
2023-03-29T00:24:15.296Z,29.23
2023-03-29T00:25:15.312Z,29.13
2023-03-29T00:26:15.329Z,30.88
2023-03-29T00:27:15.353Z,26.61
2023-03-29T00:28:15.373Z,31.90
2023-03-29T00:29:15.386Z,28.72
2023-03-29T00:30:15.423Z,26.42
2023-03-29T00:31:15.448Z,28.22
2023-03-29T00:32:15.414Z,27.91
2023-03-29T00:33:15.415Z,30.68
2023-03-29T00:34:15.411Z,32.50
2023-03-29T00:35:15.429Z,32.77
2023-03-29T00:36:15.437Z,31.25
2023-03-29T00:37:15.444Z,31.76
2023-03-29T00:38:15.443Z,30.23
2023-03-29T00:39:15.452Z,30.30
2023-03-29T00:40:15.509Z,32.07
2023-03-29T00:41:15.478Z,34.76
2023-03-29T00:42:15.475Z,33.43
2023-03-29T00:43:15.487Z,32.79
2023-03-29T00:44:15.489Z,30.58
2023-03-29T00:45:15.492Z,32.53
2023-03-29T00:46:15.517Z,30.03
2023-03-29T00:47:15.504Z,32.26
2023-03-29T00:48:15.505Z,32.66
2023-03-29T00:49:15.533Z,29.60
2023-03-29T00:50:15.528Z,30.52
2023-03-29T00:51:15.537Z,26.92
2023-03-29T00:52:15.548Z,30.24
2023-03-29T00:53:15.552Z,29.76
2023-03-29T00:54:15.563Z,28.88
2023-03-29T00:55:15.581Z,27.66
2023-03-29T00:56:15.592Z,27.21
2023-03-29T00:57:15.614Z,28.08
2023-03-29T00:58:15.604Z,25.00
2023-03-29T00:59:15.639Z,30.56
2023-03-29T01:00:15.641Z,29.36
2023-03-29T01:01:15.651Z,29.71
2023-03-29T01:02:15.728Z,26.37
2023-03-29T01:03:15.725Z,31.71
2023-03-29T01:04:15.680Z,30.68
2023-03-29T01:05:15.733Z,28.38
2023-03-29T01:06:15.714Z,25.60
2023-03-29T01:07:15.727Z,26.19
2023-03-29T01:08:15.729Z,26.71
2023-03-29T01:09:15.737Z,30.03
2023-03-29T01:10:15.747Z,31.41
2023-03-29T01:11:15.778Z,28.42
2023-03-29T01:12:15.786Z,27.82
2023-03-29T01:13:15.798Z,29.65
2023-03-29T01:14:15.802Z,28.52
2023-03-29T01:15:15.824Z,29.33
2023-03-29T01:16:15.874Z,32.91
2023-03-29T01:17:15.853Z,31.84
2023-03-29T01:18:15.864Z,27.59
2023-03-29T01:19:15.871Z,28.98
2023-03-29T01:20:15.876Z,28.04
2023-03-29T01:21:15.897Z,27.36
2023-03-29T01:22:15.915Z,30.31
2023-03-29T01:23:15.948Z,26.10
2023-03-29T01:24:15.940Z,29.44
2023-03-29T01:25:15.968Z,29.27
2023-03-29T01:26:15.982Z,31.06
2023-03-29T01:27:15.998Z,30.51
2023-03-29T01:28:16.010Z,29.29
2023-03-29T01:29:16.027Z,29.27
2023-03-29T01:30:16.042Z,25.69
2023-03-29T01:31:16.077Z,26.30
2023-03-29T01:32:16.075Z,27.93
2023-03-29T01:33:16.097Z,28.83
2023-03-29T01:34:16.120Z,29.52
2023-03-29T01:35:16.120Z,25.15
2023-03-29T01:36:16.148Z,26.51
2023-03-29T01:37:16.152Z,28.18
2023-03-29T01:38:16.242Z,27.22
2023-03-29T01:39:16.189Z,25.49
2023-03-29T01:40:16.211Z,28.88
2023-03-29T01:41:16.270Z,26.56
2023-03-29T01:42:16.245Z,26.65
2023-03-29T01:43:16.256Z,27.68
2023-03-29T01:44:16.272Z,25.00
2023-03-29T01:45:16.283Z,28.95
2023-03-29T01:46:16.322Z,31.21
2023-03-29T01:47:16.318Z,26.06
2023-03-29T01:48:16.330Z,31.02
2023-03-29T01:49:16.347Z,27.68
2023-03-29T01:50:16.368Z,27.15
2023-03-29T01:51:16.400Z,28.74
2023-03-29T01:52:16.392Z,28.72
2023-03-29T01:53:16.403Z,30.72
2023-03-29T01:54:16.416Z,26.92
2023-03-29T01:55:16.428Z,27.80
2023-03-29T01:56:16.444Z,26.31
2023-03-29T01:57:16.518Z,27.58
2023-03-29T01:58:16.511Z,27.19
2023-03-29T01:59:16.491Z,31.60
2023-03-29T02:00:16.525Z,28.05
2023-03-29T02:01:16.558Z,28.95
2023-03-29T02:02:16.587Z,29.31
2023-03-29T02:03:16.598Z,32.14
2023-03-29T02:04:16.565Z,33.86
2023-03-29T02:05:16.595Z,30.20
2023-03-29T02:06:16.600Z,29.11
2023-03-29T02:07:16.605Z,26.11
2023-03-29T02:08:16.620Z,27.29
2023-03-29T02:09:16.644Z,31.60
2023-03-29T02:10:16.645Z,30.15
2023-03-29T02:11:16.664Z,29.43
2023-03-29T02:12:16.663Z,29.81
2023-03-29T02:13:16.676Z,26.65
2023-03-29T02:14:16.704Z,33.26
2023-03-29T02:15:16.706Z,28.24
2023-03-29T02:16:16.942Z,28.84
2023-03-29T02:17:16.724Z,27.15
2023-03-29T02:18:16.748Z,31.77
2023-03-29T02:19:16.765Z,28.36
2023-03-29T02:20:16.779Z,27.12
2023-03-29T02:21:16.777Z,26.78
2023-03-29T02:22:16.786Z,27.99
2023-03-29T02:23:16.805Z,28.16
2023-03-29T02:24:16.805Z,34.01
2023-03-29T02:25:16.896Z,32.89
2023-03-29T02:26:16.835Z,35.94
2023-03-29T02:27:16.842Z,41.39
2023-03-29T02:28:16.870Z,47.53
2023-03-29T02:29:16.870Z,44.48
2023-03-29T02:30:16.881Z,43.73
2023-03-29T02:31:16.912Z,44.85
2023-03-29T02:32:16.919Z,44.94
2023-03-29T02:33:16.913Z,48.44
2023-03-29T02:34:16.931Z,46.56
2023-03-29T02:35:16.931Z,49.38
2023-03-29T02:36:17.039Z,52.39
2023-03-29T02:37:16.942Z,50.70
2023-03-29T02:38:16.945Z,52.26
2023-03-29T02:39:16.950Z,52.06
2023-03-29T02:40:16.959Z,48.34
2023-03-29T02:41:16.974Z,51.27
2023-03-29T02:42:16.978Z,55.62
2023-03-29T02:43:16.984Z,57.57
2023-03-29T02:44:16.998Z,55.64
2023-03-29T02:45:17.008Z,52.42
2023-03-29T02:46:17.039Z,51.15
2023-03-29T02:47:17.020Z,54.46
2023-03-29T02:48:17.028Z,49.84
2023-03-29T02:49:17.039Z,47.33
2023-03-29T02:50:17.049Z,45.65
2023-03-29T02:51:19.816Z,43.32
2023-03-29T02:52:17.013Z,43.72
2023-03-29T02:53:16.968Z,42.94
2023-03-29T02:54:16.915Z,42.61
2023-03-29T02:55:16.870Z,45.40
2023-03-29T02:56:16.825Z,40.58
2023-03-29T02:57:16.825Z,38.12
2023-03-29T02:58:16.750Z,41.81
2023-03-29T02:59:16.697Z,44.71
2023-03-29T03:00:16.660Z,42.56
2023-03-29T03:01:16.612Z,38.60
2023-03-29T03:02:16.620Z,37.04
2023-03-29T03:03:16.692Z,43.55
2023-03-29T03:04:16.498Z,36.01
2023-03-29T03:05:16.430Z,35.41
2023-03-29T03:06:16.399Z,40.90
2023-03-29T03:07:16.333Z,43.92
2023-03-29T03:08:16.299Z,45.65
2023-03-29T03:09:16.241Z,45.87
2023-03-29T03:10:16.187Z,44.18
2023-03-29T03:11:16.147Z,44.43
2023-03-29T03:12:16.099Z,50.23
2023-03-29T03:13:16.060Z,47.70
2023-03-29T03:14:16.011Z,49.43
2023-03-29T03:15:15.967Z,47.15
2023-03-29T03:16:15.928Z,50.83
2023-03-29T03:17:15.878Z,49.66
2023-03-29T03:18:15.852Z,52.28
2023-03-29T03:19:15.800Z,51.04
2023-03-29T03:20:15.744Z,52.39
2023-03-29T03:21:15.697Z,52.13
2023-03-29T03:22:15.666Z,52.30
2023-03-29T03:23:15.601Z,56.24
2023-03-29T03:24:15.568Z,55.44
2023-03-29T03:25:15.539Z,55.42
2023-03-29T03:26:15.467Z,53.84
2023-03-29T03:27:15.427Z,56.04
2023-03-29T03:28:15.389Z,56.06
2023-03-29T03:29:15.347Z,53.07
2023-03-29T03:30:15.295Z,57.80
2023-03-29T03:31:15.257Z,56.51
2023-03-29T03:32:15.206Z,53.87
2023-03-29T03:33:15.151Z,56.87
2023-03-29T03:34:15.097Z,55.70
2023-03-29T03:35:15.054Z,59.18
2023-03-29T03:36:15.013Z,59.89
2023-03-29T03:37:14.956Z,60.69
2023-03-29T03:38:14.929Z,59.86
2023-03-29T03:39:14.927Z,58.88
2023-03-29T03:40:14.940Z,60.37
2023-03-29T03:41:14.955Z,61.00
2023-03-29T03:42:14.951Z,61.28
2023-03-29T03:43:14.950Z,61.31
2023-03-29T03:44:14.963Z,60.10
2023-03-29T03:45:14.961Z,61.39
2023-03-29T03:46:14.983Z,60.58
2023-03-29T03:47:14.968Z,61.08
2023-03-29T03:48:14.963Z,62.32
2023-03-29T03:49:14.984Z,58.50
2023-03-29T03:50:14.976Z,60.65
2023-03-29T03:51:14.985Z,61.22
2023-03-29T03:52:14.982Z,66.63
2023-03-29T03:53:14.985Z,61.14
2023-03-29T03:54:15.001Z,66.14
2023-03-29T03:55:14.995Z,61.11
2023-03-29T03:56:14.995Z,62.54
2023-03-29T03:57:15.024Z,63.34
2023-03-29T03:58:15.011Z,62.71
2023-03-29T03:59:15.011Z,63.45
2023-03-29T04:00:15.010Z,66.04
2023-03-29T04:01:15.028Z,62.03
2023-03-29T04:02:15.063Z,63.92
2023-03-29T04:03:15.161Z,63.98
2023-03-29T04:04:15.070Z,65.53
2023-03-29T04:05:15.052Z,65.07
2023-03-29T04:06:15.032Z,64.73
2023-03-29T04:07:15.036Z,63.76
2023-03-29T04:08:15.090Z,62.58
2023-03-29T04:09:15.027Z,59.96
2023-03-29T04:10:15.043Z,66.29
2023-03-29T04:11:15.047Z,64.60
2023-03-29T04:12:15.048Z,65.72
2023-03-29T04:13:15.048Z,62.09
2023-03-29T04:14:15.051Z,59.59
2023-03-29T04:15:15.053Z,63.72
2023-03-29T04:16:15.092Z,60.84
2023-03-29T04:17:15.063Z,63.09
2023-03-29T04:18:15.180Z,60.63
2023-03-29T04:19:15.080Z,59.49
2023-03-29T04:20:15.087Z,59.20
2023-03-29T04:21:15.086Z,60.20
2023-03-29T04:22:15.089Z,59.59
2023-03-29T04:23:15.093Z,59.15
2023-03-29T04:24:15.097Z,62.29
2023-03-29T04:25:15.112Z,64.16
2023-03-29T04:26:15.110Z,63.73
2023-03-29T04:27:15.118Z,60.55
2023-03-29T04:28:15.124Z,57.01
2023-03-29T04:29:15.157Z,62.00
2023-03-29T04:30:15.132Z,60.76
2023-03-29T04:31:15.196Z,61.31
2023-03-29T04:32:15.170Z,60.19
2023-03-29T04:33:15.169Z,60.20
2023-03-29T04:34:15.177Z,60.52
2023-03-29T04:35:15.225Z,61.12
2023-03-29T04:36:15.199Z,64.43
2023-03-29T04:37:15.212Z,60.36
2023-03-29T04:38:15.194Z,63.48
2023-03-29T04:39:15.194Z,60.70
2023-03-29T04:40:15.204Z,61.65
2023-03-29T04:41:15.216Z,58.34
2023-03-29T04:42:15.214Z,59.99
2023-03-29T04:43:15.213Z,57.04
2023-03-29T04:44:15.217Z,60.18
2023-03-29T04:45:15.240Z,63.48
2023-03-29T04:46:15.346Z,58.53
2023-03-29T04:47:15.237Z,61.34
2023-03-29T04:48:15.238Z,65.68
2023-03-29T04:49:15.243Z,59.42
2023-03-29T04:50:15.247Z,59.32
2023-03-29T04:51:15.250Z,58.54
2023-03-29T04:52:15.256Z,57.39
2023-03-29T04:53:15.259Z,59.37
2023-03-29T04:54:15.282Z,55.56
2023-03-29T04:55:15.282Z,58.55
2023-03-29T04:56:15.279Z,60.59
2023-03-29T04:57:15.324Z,57.61
2023-03-29T04:58:15.298Z,58.83
2023-03-29T04:59:15.310Z,62.24
2023-03-29T05:00:15.482Z,57.79
2023-03-29T05:01:15.332Z,59.45
2023-03-29T05:02:15.335Z,66.21
2023-03-29T05:03:15.350Z,64.15
2023-03-29T05:04:15.454Z,62.38
2023-03-29T05:05:15.393Z,61.67
2023-03-29T05:06:15.374Z,60.28
2023-03-29T05:07:15.398Z,62.48
2023-03-29T05:08:15.423Z,60.72
2023-03-29T05:09:15.418Z,63.99
2023-03-29T05:10:15.446Z,71.08
2023-03-29T05:11:15.473Z,74.03
2023-03-29T05:12:15.493Z,74.82
2023-03-29T05:13:15.492Z,81.08
2023-03-29T05:14:15.515Z,87.07
2023-03-29T05:15:15.541Z,106.43
2023-03-29T05:16:15.580Z,107.81
2023-03-29T05:17:15.594Z,120.25
2023-03-29T05:18:15.604Z,124.12
2023-03-29T05:19:15.632Z,126.66
2023-03-29T05:20:15.652Z,135.71
2023-03-29T05:21:15.667Z,148.68
2023-03-29T05:22:15.689Z,141.59
2023-03-29T05:23:16.539Z,141.87
2023-03-29T05:24:15.631Z,142.02
2023-03-29T05:25:15.597Z,143.31
2023-03-29T05:26:16.490Z,147.81
2023-03-29T05:27:15.540Z,152.70
2023-03-29T05:28:15.488Z,159.40
2023-03-29T05:29:15.455Z,156.07
2023-03-29T05:30:15.501Z,150.64
2023-03-29T05:31:16.921Z,156.28
2023-03-29T05:32:15.386Z,167.49
2023-03-29T05:33:15.311Z,184.73
2023-03-29T05:34:17.072Z,194.19
2023-03-29T05:35:15.230Z,191.00
2023-03-29T05:36:15.264Z,198.05
2023-03-29T05:37:15.157Z,168.29
2023-03-29T05:38:15.103Z,157.35
2023-03-29T05:39:15.058Z,162.98
2023-03-29T05:40:15.024Z,159.94
2023-03-29T05:41:14.970Z,153.04
2023-03-29T05:42:14.990Z,153.24
2023-03-29T05:43:15.541Z,149.93
2023-03-29T05:44:15.024Z,147.25
2023-03-29T05:45:15.079Z,147.17
2023-03-29T05:46:15.072Z,138.88
2023-03-29T05:47:15.053Z,140.57
2023-03-29T05:48:15.009Z,141.10
2023-03-29T05:49:14.972Z,139.74
2023-03-29T05:50:14.924Z,143.96
2023-03-29T05:51:14.876Z,147.86
2023-03-29T05:52:14.828Z,145.77
2023-03-29T05:53:14.792Z,144.25
2023-03-29T05:54:14.747Z,146.46
2023-03-29T05:55:14.719Z,147.26
2023-03-29T05:56:14.666Z,145.04
2023-03-29T05:57:14.645Z,145.71
2023-03-29T05:58:14.609Z,161.77
2023-03-29T05:59:14.558Z,158.25
2023-03-29T06:00:14.506Z,143.32
2023-03-29T06:01:14.488Z,132.86
2023-03-29T06:02:14.499Z,126.14
2023-03-29T06:03:20.883Z,119.92
2023-03-29T06:04:15.536Z,118.97
2023-03-29T06:05:14.421Z,118.72
2023-03-29T06:06:14.381Z,119.16
2023-03-29T06:07:14.490Z,116.72
2023-03-29T06:08:14.292Z,133.53
2023-03-29T06:09:14.298Z,123.76
2023-03-29T06:10:14.263Z,113.38
2023-03-29T06:11:14.177Z,106.08
2023-03-29T06:12:14.126Z,105.96
2023-03-29T06:13:14.133Z,104.84
2023-03-29T06:14:14.151Z,101.17
2023-03-29T06:15:15.159Z,105.76
2023-03-29T06:16:14.163Z,104.95
2023-03-29T06:17:14.244Z,111.43
2023-03-29T06:18:14.323Z,111.21
2023-03-29T06:19:14.270Z,111.99
2023-03-29T06:20:16.234Z,112.13
2023-03-29T06:21:14.125Z,112.67
2023-03-29T06:22:15.031Z,116.43
2023-03-29T06:23:14.033Z,116.55
2023-03-29T06:24:14.276Z,127.15
2023-03-29T06:25:13.969Z,140.24
2023-03-29T06:26:13.907Z,160.26
2023-03-29T06:27:13.935Z,160.76
2023-03-29T06:28:13.824Z,162.52
2023-03-29T06:29:13.776Z,160.71
2023-03-29T06:30:13.766Z,164.36
2023-03-29T06:31:13.708Z,174.01
2023-03-29T06:32:13.630Z,169.70
2023-03-29T06:33:13.584Z,154.90
2023-03-29T06:34:13.561Z,146.59
2023-03-29T06:35:13.540Z,138.44
2023-03-29T06:36:13.467Z,137.16
2023-03-29T06:37:13.393Z,149.33
2023-03-29T06:38:13.338Z,169.22
2023-03-29T06:39:13.293Z,194.82
2023-03-29T06:40:13.267Z,203.61
2023-03-29T06:41:13.448Z,224.12
2023-03-29T06:42:21.043Z,234.22
2023-03-29T06:43:14.101Z,229.10
2023-03-29T06:44:13.063Z,234.23
2023-03-29T06:45:13.023Z,237.12
2023-03-29T06:46:13.012Z,234.28
2023-03-29T06:47:13.004Z,194.06
2023-03-29T06:48:12.879Z,161.97
2023-03-29T06:49:12.837Z,138.56
2023-03-29T06:50:12.786Z,126.14
2023-03-29T06:51:12.741Z,123.34
2023-03-29T06:52:13.097Z,110.61
2023-03-29T06:53:12.710Z,107.95
2023-03-29T06:54:13.593Z,105.97
2023-03-29T06:55:12.547Z,94.96
2023-03-29T06:56:12.567Z,78.33
2023-03-29T06:57:12.606Z,72.42
2023-03-29T06:58:12.473Z,65.87
2023-03-29T06:59:12.480Z,64.68
2023-03-29T07:00:12.401Z,66.61
2023-03-29T07:01:12.337Z,66.91
2023-03-29T07:02:12.538Z,59.47
2023-03-29T07:03:12.305Z,68.37
2023-03-29T07:04:12.222Z,61.69
2023-03-29T07:05:12.190Z,52.40
2023-03-29T07:06:12.122Z,51.12
2023-03-29T07:07:12.055Z,44.74
2023-03-29T07:08:12.014Z,50.90
2023-03-29T07:09:11.968Z,42.68
2023-03-29T07:10:11.941Z,44.05
2023-03-29T07:11:11.942Z,38.80
2023-03-29T07:12:11.956Z,75.08
2023-03-29T07:13:11.959Z,55.76
2023-03-29T07:14:12.583Z,45.61
2023-03-29T07:15:12.056Z,45.85
2023-03-29T07:16:12.112Z,46.18
2023-03-29T07:17:12.081Z,48.19
2023-03-29T07:18:12.101Z,70.34
2023-03-29T07:19:12.121Z,116.11
2023-03-29T07:20:12.154Z,141.90
2023-03-29T07:21:12.165Z,159.73
2023-03-29T07:22:12.207Z,181.95
2023-03-29T07:23:12.236Z,205.76
2023-03-29T07:24:12.420Z,222.56
2023-03-29T07:25:12.281Z,223.71
2023-03-29T07:26:12.218Z,224.19
2023-03-29T07:27:12.176Z,226.34
2023-03-29T07:28:12.136Z,231.33
2023-03-29T07:29:12.084Z,239.69
2023-03-29T07:30:12.094Z,257.59
2023-03-29T07:31:12.022Z,221.82
2023-03-29T07:32:11.979Z,192.51
2023-03-29T07:33:11.995Z,192.13
2023-03-29T07:34:11.866Z,176.44
2023-03-29T07:35:11.819Z,152.53
2023-03-29T07:36:11.863Z,122.83
2023-03-29T07:37:11.832Z,100.60
2023-03-29T07:38:11.794Z,90.46
2023-03-29T07:39:11.749Z,79.12
2023-03-29T07:40:11.691Z,64.02
2023-03-29T07:41:11.656Z,59.47
2023-03-29T07:42:11.631Z,57.53
2023-03-29T07:43:11.582Z,52.68
2023-03-29T07:44:11.554Z,58.99
2023-03-29T07:45:11.501Z,54.52
2023-03-29T07:46:11.486Z,43.41
2023-03-29T07:47:11.453Z,30.87
2023-03-29T07:48:13.119Z,23.79
2023-03-29T07:49:11.491Z,25.00
2023-03-29T07:50:11.453Z,18.91
2023-03-29T07:51:11.408Z,13.15
2023-03-29T07:52:11.362Z,9.24
2023-03-29T07:53:11.326Z,6.51
2023-03-29T07:54:11.281Z,0.44
2023-03-29T07:55:11.250Z,22.69
2023-03-29T07:56:11.208Z,26.32
2023-03-29T07:57:11.211Z,26.29
2023-03-29T07:58:11.146Z,25.89
2023-03-29T07:59:11.103Z,25.94
2023-03-29T08:00:11.075Z,25.99
2023-03-29T08:01:14.202Z,19.62
2023-03-29T08:02:11.010Z,24.93
2023-03-29T08:03:11.096Z,14.67
2023-03-29T08:04:10.994Z,14.04
2023-03-29T08:05:10.946Z,12.95
2023-03-29T08:06:10.820Z,7.59
2023-03-29T08:07:10.783Z,15.26
2023-03-29T08:08:10.790Z,10.49
2023-03-29T08:09:10.713Z,9.88
2023-03-29T08:10:10.673Z,13.45
2023-03-29T08:11:10.631Z,27.20
2023-03-29T08:12:10.602Z,27.21
2023-03-29T08:13:10.586Z,35.37
2023-03-29T08:14:10.540Z,55.38
2023-03-29T08:15:10.498Z,87.93
2023-03-29T08:16:10.470Z,154.72
2023-03-29T08:17:10.452Z,31.66
2023-03-29T08:18:11.195Z,52.67
2023-03-29T08:19:10.356Z,87.43
2023-03-29T08:20:10.328Z,134.09
2023-03-29T08:21:10.293Z,218.77
2023-03-29T08:22:10.240Z,256.74
2023-03-29T08:23:10.224Z,248.23
2023-03-29T08:24:10.162Z,225.88
2023-03-29T08:25:10.135Z,220.33
2023-03-29T08:26:10.145Z,224.49
2023-03-29T08:27:10.174Z,247.11
2023-03-29T08:28:10.256Z,250.00
2023-03-29T08:29:10.205Z,250.00
2023-03-29T08:30:10.201Z,237.62
2023-03-29T08:31:10.294Z,223.85
2023-03-29T08:32:10.216Z,204.54
2023-03-29T08:33:10.297Z,191.94
2023-03-29T08:34:10.222Z,181.23
2023-03-29T08:35:10.235Z,175.79
2023-03-29T08:36:10.281Z,176.27
2023-03-29T08:37:10.241Z,169.01
2023-03-29T08:38:10.260Z,165.27
2023-03-29T08:39:10.273Z,162.00
2023-03-29T08:40:10.280Z,159.44
2023-03-29T08:41:10.303Z,160.74
2023-03-29T08:42:10.314Z,158.18
2023-03-29T08:43:10.322Z,159.50
2023-03-29T08:44:10.339Z,156.75
2023-03-29T08:45:10.356Z,159.58
2023-03-29T08:46:10.405Z,157.35
2023-03-29T08:47:10.388Z,158.14
2023-03-29T08:48:10.400Z,159.29
2023-03-29T08:49:10.422Z,158.55
2023-03-29T08:50:10.445Z,159.59
2023-03-29T08:51:10.530Z,159.15
2023-03-29T08:52:10.490Z,156.40
2023-03-29T08:53:11.056Z,156.35
2023-03-29T08:54:10.521Z,154.63
2023-03-29T08:55:10.538Z,154.85
2023-03-29T08:56:10.559Z,157.66
2023-03-29T08:57:10.678Z,156.78
2023-03-29T08:58:10.619Z,156.37
2023-03-29T08:59:10.623Z,155.02
2023-03-29T09:00:10.638Z,153.91
2023-03-29T09:01:10.657Z,156.38
2023-03-29T09:02:10.717Z,157.21
2023-03-29T09:03:10.783Z,156.90
2023-03-29T09:04:10.775Z,160.27
2023-03-29T09:05:10.735Z,157.06
2023-03-29T09:06:10.759Z,154.77
2023-03-29T09:07:10.770Z,152.69
2023-03-29T09:08:10.784Z,149.84
2023-03-29T09:09:10.800Z,150.01
2023-03-29T09:10:10.835Z,149.53
2023-03-29T09:11:10.846Z,145.97
2023-03-29T09:12:10.882Z,146.53
2023-03-29T09:13:11.729Z,146.16
2023-03-29T09:14:10.912Z,148.66
2023-03-29T09:15:10.934Z,155.61
2023-03-29T09:16:11.772Z,159.17
2023-03-29T09:17:11.018Z,173.66
2023-03-29T09:18:11.023Z,191.35
2023-03-29T09:19:10.960Z,209.03
2023-03-29T09:20:10.947Z,214.35
2023-03-29T09:21:10.939Z,225.58
2023-03-29T09:22:10.976Z,230.22
2023-03-29T09:23:10.956Z,216.12
2023-03-29T09:24:10.999Z,200.75
2023-03-29T09:25:11.037Z,187.81
2023-03-29T09:26:11.052Z,189.47
2023-03-29T09:27:11.060Z,193.05
2023-03-29T09:28:11.075Z,194.17
2023-03-29T09:29:11.025Z,193.47
2023-03-29T09:30:10.967Z,194.40
2023-03-29T09:31:10.953Z,194.58
2023-03-29T09:32:10.872Z,196.22
2023-03-29T09:33:10.846Z,201.17
2023-03-29T09:34:11.222Z,202.64
2023-03-29T09:35:10.750Z,208.32
2023-03-29T09:36:10.712Z,214.02
2023-03-29T09:37:10.650Z,211.79
2023-03-29T09:38:10.605Z,209.08
2023-03-29T09:39:10.617Z,209.36
2023-03-29T09:40:10.638Z,206.52
2023-03-29T09:41:10.645Z,207.67
2023-03-29T09:42:10.637Z,209.74
2023-03-29T09:43:10.656Z,207.07
2023-03-29T09:44:17.712Z,208.79
2023-03-29T09:45:11.609Z,208.95
2023-03-29T09:46:10.573Z,209.35
2023-03-29T09:47:10.508Z,210.24
2023-03-29T09:48:10.503Z,213.39
2023-03-29T09:49:10.410Z,188.29
2023-03-29T09:50:19.804Z,146.72
2023-03-29T09:51:11.324Z,124.23
2023-03-29T09:52:10.290Z,107.66
2023-03-29T09:53:10.253Z,87.31
2023-03-29T09:54:10.235Z,72.80
2023-03-29T09:55:10.182Z,59.79
2023-03-29T09:56:10.148Z,55.84
2023-03-29T09:57:10.175Z,63.80
2023-03-29T09:58:10.089Z,76.64
2023-03-29T09:59:10.667Z,101.83
2023-03-29T10:00:10.021Z,126.36
2023-03-29T10:01:10.000Z,152.77
2023-03-29T10:02:09.933Z,153.64
2023-03-29T10:03:10.825Z,158.77
2023-03-29T10:04:09.893Z,168.68
2023-03-29T10:05:09.826Z,182.61
2023-03-29T10:06:12.585Z,199.77
2023-03-29T10:07:09.735Z,206.13
2023-03-29T10:08:09.712Z,207.82
2023-03-29T10:09:10.184Z,212.54
2023-03-29T10:10:09.620Z,214.63
2023-03-29T10:11:09.597Z,214.07
2023-03-29T10:12:09.538Z,214.38
2023-03-29T10:13:09.506Z,220.28
2023-03-29T10:14:09.464Z,229.80
2023-03-29T10:15:19.625Z,244.54
2023-03-29T10:16:10.438Z,244.64
2023-03-29T10:17:09.355Z,245.64
2023-03-29T10:18:09.325Z,247.68
2023-03-29T10:19:09.284Z,251.59
2023-03-29T10:20:10.186Z,243.96
2023-03-29T10:21:09.163Z,239.71
2023-03-29T10:22:09.123Z,238.61
2023-03-29T10:23:09.094Z,237.49
2023-03-29T10:24:09.057Z,233.51
2023-03-29T10:25:08.974Z,235.75
2023-03-29T10:26:08.916Z,232.21
2023-03-29T10:27:08.872Z,233.51
2023-03-29T10:28:08.828Z,236.11
2023-03-29T10:29:08.797Z,236.72
2023-03-29T10:30:08.749Z,240.45
2023-03-29T10:31:08.722Z,236.89
2023-03-29T10:32:08.736Z,239.74
2023-03-29T10:33:08.668Z,239.99
2023-03-29T10:34:08.577Z,243.06
2023-03-29T10:35:08.540Z,239.37
2023-03-29T10:36:08.566Z,241.35
2023-03-29T10:37:08.462Z,240.09
2023-03-29T10:38:08.402Z,240.29
2023-03-29T10:39:08.359Z,240.45
2023-03-29T10:40:08.341Z,238.07
2023-03-29T10:41:08.273Z,239.35
2023-03-29T10:42:08.256Z,239.95
2023-03-29T10:43:08.261Z,239.69
2023-03-29T10:44:08.277Z,241.51
2023-03-29T10:45:08.289Z,242.32
2023-03-29T10:46:09.226Z,238.84
2023-03-29T10:47:08.251Z,238.85
2023-03-29T10:48:08.224Z,237.72
2023-03-29T10:49:08.170Z,237.03
2023-03-29T10:50:08.127Z,238.30
2023-03-29T10:51:08.080Z,238.22
2023-03-29T10:52:08.036Z,239.11
2023-03-29T10:53:07.998Z,236.47
2023-03-29T10:54:07.973Z,240.22
2023-03-29T10:55:07.906Z,236.68
2023-03-29T10:56:07.865Z,242.48
2023-03-29T10:57:07.843Z,242.84
2023-03-29T10:58:07.778Z,242.91
2023-03-29T10:59:07.724Z,240.65
2023-03-29T11:00:07.709Z,240.23
2023-03-29T11:01:07.666Z,238.44
2023-03-29T11:02:07.618Z,249.98
2023-03-29T11:03:08.321Z,246.54
2023-03-29T11:04:07.560Z,248.68
2023-03-29T11:05:07.492Z,248.45
2023-03-29T11:06:07.497Z,248.33
2023-03-29T11:07:07.411Z,248.19
2023-03-29T11:08:07.367Z,247.42
2023-03-29T11:09:07.344Z,248.95
2023-03-29T11:10:07.301Z,246.08
2023-03-29T11:11:07.265Z,236.35
2023-03-29T11:12:15.526Z,230.31
2023-03-29T11:13:08.168Z,230.48
2023-03-29T11:14:07.127Z,230.60
2023-03-29T11:15:07.079Z,227.98
2023-03-29T11:16:07.136Z,226.75
2023-03-29T11:17:06.984Z,223.82
2023-03-29T11:18:06.976Z,224.32
2023-03-29T11:19:07.690Z,224.15
2023-03-29T11:20:06.923Z,223.75
2023-03-29T11:21:10.331Z,223.64
2023-03-29T11:22:06.769Z,223.76
2023-03-29T11:23:06.741Z,223.94
2023-03-29T11:24:06.689Z,224.63
2023-03-29T11:25:06.643Z,224.98
2023-03-29T11:26:06.602Z,223.47
2023-03-29T11:27:06.577Z,221.88
2023-03-29T11:28:06.516Z,221.84
2023-03-29T11:29:06.481Z,222.06
2023-03-29T11:30:06.464Z,219.65
2023-03-29T11:31:06.745Z,221.95
2023-03-29T11:32:06.343Z,222.47
2023-03-29T11:33:06.381Z,221.42
2023-03-29T11:34:06.251Z,225.49
2023-03-29T11:35:06.193Z,228.33
2023-03-29T11:36:06.194Z,240.94
2023-03-29T11:37:06.114Z,242.30
2023-03-29T11:38:06.064Z,247.45
2023-03-29T11:39:06.022Z,245.81
2023-03-29T11:40:05.977Z,247.19
2023-03-29T11:41:06.111Z,249.17
2023-03-29T11:42:05.884Z,249.93
2023-03-29T11:43:05.841Z,250.00
2023-03-29T11:44:05.790Z,247.94
2023-03-29T11:45:05.746Z,246.89
2023-03-29T11:46:05.785Z,248.36
2023-03-29T11:47:05.797Z,241.82
2023-03-29T11:48:05.711Z,239.62
2023-03-29T11:49:05.597Z,236.71
2023-03-29T11:50:05.534Z,234.59
2023-03-29T11:51:05.522Z,231.43
2023-03-29T11:52:05.527Z,229.81
2023-03-29T11:53:05.525Z,233.68
2023-03-29T11:54:05.567Z,232.61
2023-03-29T11:55:05.535Z,231.97
2023-03-29T11:56:05.554Z,229.69
2023-03-29T11:57:05.549Z,230.05
2023-03-29T11:58:05.542Z,225.18
2023-03-29T11:59:05.536Z,227.03
2023-03-29T12:00:05.527Z,225.56
2023-03-29T12:01:05.552Z,219.83
2023-03-29T12:02:05.530Z,218.00
2023-03-29T12:03:05.599Z,213.82
2023-03-29T12:04:05.595Z,213.16
2023-03-29T12:05:05.524Z,212.44
2023-03-29T12:06:05.531Z,209.30
2023-03-29T12:07:05.531Z,209.55
2023-03-29T12:08:05.544Z,209.88
2023-03-29T12:09:05.532Z,208.47
2023-03-29T12:10:05.524Z,208.16
2023-03-29T12:11:05.549Z,207.07
2023-03-29T12:12:05.537Z,206.56
2023-03-29T12:13:05.542Z,203.47
2023-03-29T12:14:05.540Z,204.23
2023-03-29T12:15:05.552Z,199.54
2023-03-29T12:16:05.562Z,199.98
2023-03-29T12:17:05.709Z,200.14
2023-03-29T12:18:05.591Z,200.31
2023-03-29T12:19:05.570Z,196.83
2023-03-29T12:20:05.576Z,196.76
2023-03-29T12:21:05.782Z,196.25
2023-03-29T12:22:05.562Z,197.06
2023-03-29T12:23:05.573Z,194.45
2023-03-29T12:24:05.579Z,191.74
2023-03-29T12:25:05.584Z,189.35
2023-03-29T12:26:05.584Z,189.67
2023-03-29T12:27:05.592Z,188.39
2023-03-29T12:28:05.608Z,192.52
2023-03-29T12:29:05.683Z,193.30
2023-03-29T12:30:05.624Z,194.33
2023-03-29T12:31:05.670Z,194.67
2023-03-29T12:32:05.682Z,194.39
2023-03-29T12:33:05.691Z,193.26
2023-03-29T12:34:05.656Z,193.16
2023-03-29T12:35:05.660Z,197.78
2023-03-29T12:36:05.681Z,192.99
2023-03-29T12:37:05.664Z,194.37
2023-03-29T12:38:05.657Z,194.81
2023-03-29T12:39:05.666Z,192.56
2023-03-29T12:40:05.686Z,193.38